sensor_id;sensor_type;location;lat;lon;timestamp;temperature;humidity
10386;DHT22;34307;51.332;12.334;2023-05-19T00:01:58;11.50;27.10
10386;DHT22;34307;51.332;12.334;2023-05-19T00:04:27;11.50;26.80
10386;DHT22;34307;51.332;12.334;2023-05-19T00:06:55;11.50;26.40
10386;DHT22;34307;51.332;12.334;2023-05-19T00:09:26;11.40;27.10
10386;DHT22;34307;51.332;12.334;2023-05-19T00:11:56;11.50;26.40
10386;DHT22;34307;51.332;12.334;2023-05-19T00:14:25;11.40;26.80
10386;DHT22;34307;51.332;12.334;2023-05-19T00:16:54;11.50;27.50
10386;DHT22;34307;51.332;12.334;2023-05-19T00:19:24;11.40;27.60
10386;DHT22;34307;51.332;12.334;2023-05-19T00:21:52;11.30;28.00
10386;DHT22;34307;51.332;12.334;2023-05-19T00:24:20;11.40;28.20
10386;DHT22;34307;51.332;12.334;2023-05-19T00:26:48;11.40;27.90
10386;DHT22;34307;51.332;12.334;2023-05-19T00:29:22;11.30;28.20
10386;DHT22;34307;51.332;12.334;2023-05-19T00:31:58;11.30;28.20
10386;DHT22;34307;51.332;12.334;2023-05-19T00:34:33;11.30;28.40
10386;DHT22;34307;51.332;12.334;2023-05-19T00:37:06;11.30;28.80
10386;DHT22;34307;51.332;12.334;2023-05-19T00:39:42;11.20;28.80
10386;DHT22;34307;51.332;12.334;2023-05-19T00:42:11;11.20;29.20
10386;DHT22;34307;51.332;12.334;2023-05-19T00:44:46;11.20;29.40
10386;DHT22;34307;51.332;12.334;2023-05-19T00:47:17;11.10;29.60
10386;DHT22;34307;51.332;12.334;2023-05-19T00:49:49;11.10;29.90
10386;DHT22;34307;51.332;12.334;2023-05-19T00:52:18;11.00;30.70
10386;DHT22;34307;51.332;12.334;2023-05-19T00:54:50;11.00;30.80
10386;DHT22;34307;51.332;12.334;2023-05-19T00:57:29;11.00;31.60
10386;DHT22;34307;51.332;12.334;2023-05-19T01:00:06;10.90;32.00
10386;DHT22;34307;51.332;12.334;2023-05-19T01:02:40;10.90;33.20
10386;DHT22;34307;51.332;12.334;2023-05-19T01:05:10;10.80;34.20
10386;DHT22;34307;51.332;12.334;2023-05-19T01:07:40;10.90;35.50
10386;DHT22;34307;51.332;12.334;2023-05-19T01:10:08;10.80;35.60
10386;DHT22;34307;51.332;12.334;2023-05-19T01:12:39;10.80;36.70
10386;DHT22;34307;51.332;12.334;2023-05-19T01:15:10;10.70;37.40
10386;DHT22;34307;51.332;12.334;2023-05-19T01:17:43;10.70;37.80
10386;DHT22;34307;51.332;12.334;2023-05-19T01:20:19;10.70;38.40
10386;DHT22;34307;51.332;12.334;2023-05-19T01:23:13;10.70;38.60
10386;DHT22;34307;51.332;12.334;2023-05-19T01:26:15;10.70;39.20
10386;DHT22;34307;51.332;12.334;2023-05-19T01:29:07;10.70;39.20
10386;DHT22;34307;51.332;12.334;2023-05-19T01:31:43;10.70;40.00
10386;DHT22;34307;51.332;12.334;2023-05-19T01:34:15;10.70;40.00
10386;DHT22;34307;51.332;12.334;2023-05-19T01:36:44;10.60;41.00
10386;DHT22;34307;51.332;12.334;2023-05-19T01:39:17;10.70;41.00
10386;DHT22;34307;51.332;12.334;2023-05-19T01:41:46;10.60;41.20
10386;DHT22;34307;51.332;12.334;2023-05-19T01:44:15;10.60;41.40
10386;DHT22;34307;51.332;12.334;2023-05-19T01:46:46;10.60;41.50
10386;DHT22;34307;51.332;12.334;2023-05-19T01:49:16;10.60;41.60
10386;DHT22;34307;51.332;12.334;2023-05-19T01:51:44;10.60;41.80
10386;DHT22;34307;51.332;12.334;2023-05-19T01:54:15;10.60;42.20
10386;DHT22;34307;51.332;12.334;2023-05-19T01:56:51;10.50;42.10
10386;DHT22;34307;51.332;12.334;2023-05-19T01:59:32;10.50;42.70
10386;DHT22;34307;51.332;12.334;2023-05-19T02:02:14;10.50;43.00
10386;DHT22;34307;51.332;12.334;2023-05-19T02:04:50;10.50;43.60
10386;DHT22;34307;51.332;12.334;2023-05-19T02:07:29;10.50;44.10
10386;DHT22;34307;51.332;12.334;2023-05-19T02:10:04;10.50;44.50
10386;DHT22;34307;51.332;12.334;2023-05-19T02:12:45;10.50;44.90
10386;DHT22;34307;51.332;12.334;2023-05-19T02:15:15;10.40;45.30
10386;DHT22;34307;51.332;12.334;2023-05-19T02:17:45;10.40;45.60
10386;DHT22;34307;51.332;12.334;2023-05-19T02:20:17;10.40;45.80
10386;DHT22;34307;51.332;12.334;2023-05-19T02:22:45;10.30;46.50
10386;DHT22;34307;51.332;12.334;2023-05-19T02:25:14;10.30;47.20
10386;DHT22;34307;51.332;12.334;2023-05-19T02:27:42;10.20;47.70
10386;DHT22;34307;51.332;12.334;2023-05-19T02:30:11;10.20;48.30
10386;DHT22;34307;51.332;12.334;2023-05-19T02:32:39;10.20;48.60
10386;DHT22;34307;51.332;12.334;2023-05-19T02:35:08;10.10;49.20
10386;DHT22;34307;51.332;12.334;2023-05-19T02:37:37;10.10;49.60
10386;DHT22;34307;51.332;12.334;2023-05-19T02:40:06;10.10;50.50
10386;DHT22;34307;51.332;12.334;2023-05-19T02:42:34;10.10;50.80
10386;DHT22;34307;51.332;12.334;2023-05-19T02:45:03;10.10;50.90
10386;DHT22;34307;51.332;12.334;2023-05-19T02:47:32;10.10;51.60
10386;DHT22;34307;51.332;12.334;2023-05-19T02:50:03;10.10;51.20
10386;DHT22;34307;51.332;12.334;2023-05-19T02:52:33;10.10;51.80
10386;DHT22;34307;51.332;12.334;2023-05-19T02:55:01;10.00;51.90
10386;DHT22;34307;51.332;12.334;2023-05-19T02:57:29;10.00;52.00
10386;DHT22;34307;51.332;12.334;2023-05-19T02:59:58;10.00;52.20
10386;DHT22;34307;51.332;12.334;2023-05-19T03:02:26;10.10;52.50
10386;DHT22;34307;51.332;12.334;2023-05-19T03:04:54;10.10;52.30
10386;DHT22;34307;51.332;12.334;2023-05-19T03:07:22;10.00;52.30
10386;DHT22;34307;51.332;12.334;2023-05-19T03:09:53;10.10;52.40
10386;DHT22;34307;51.332;12.334;2023-05-19T03:12:21;10.10;52.70
10386;DHT22;34307;51.332;12.334;2023-05-19T03:14:50;10.00;53.20
10386;DHT22;34307;51.332;12.334;2023-05-19T03:17:18;10.00;53.60
10386;DHT22;34307;51.332;12.334;2023-05-19T03:19:46;9.90;54.90
10386;DHT22;34307;51.332;12.334;2023-05-19T03:22:16;9.90;55.20
10386;DHT22;34307;51.332;12.334;2023-05-19T03:24:46;9.90;55.70
10386;DHT22;34307;51.332;12.334;2023-05-19T03:27:19;9.80;56.40
10386;DHT22;34307;51.332;12.334;2023-05-19T03:29:47;9.80;56.70
10386;DHT22;34307;51.332;12.334;2023-05-19T03:32:15;9.80;57.20
10386;DHT22;34307;51.332;12.334;2023-05-19T03:34:43;9.80;57.80
10386;DHT22;34307;51.332;12.334;2023-05-19T03:37:11;9.70;58.20
10386;DHT22;34307;51.332;12.334;2023-05-19T03:39:39;9.70;58.50
10386;DHT22;34307;51.332;12.334;2023-05-19T03:42:07;9.70;58.90
10386;DHT22;34307;51.332;12.334;2023-05-19T03:44:36;9.70;59.30
10386;DHT22;34307;51.332;12.334;2023-05-19T03:47:05;9.70;59.60
10386;DHT22;34307;51.332;12.334;2023-05-19T03:49:33;9.70;60.50
10386;DHT22;34307;51.332;12.334;2023-05-19T03:52:00;9.60;60.80
10386;DHT22;34307;51.332;12.334;2023-05-19T03:54:29;9.70;61.30
10386;DHT22;34307;51.332;12.334;2023-05-19T03:57:05;9.70;61.70
10386;DHT22;34307;51.332;12.334;2023-05-19T03:59:35;9.70;62.40
10386;DHT22;34307;51.332;12.334;2023-05-19T04:02:04;9.70;62.60
10386;DHT22;34307;51.332;12.334;2023-05-19T04:04:33;9.70;62.90
10386;DHT22;34307;51.332;12.334;2023-05-19T04:07:03;9.70;63.30
10386;DHT22;34307;51.332;12.334;2023-05-19T04:09:31;9.70;63.80
10386;DHT22;34307;51.332;12.334;2023-05-19T04:12:01;9.70;64.00
10386;DHT22;34307;51.332;12.334;2023-05-19T04:14:29;9.80;64.20
10386;DHT22;34307;51.332;12.334;2023-05-19T04:16:59;9.80;64.20
10386;DHT22;34307;51.332;12.334;2023-05-19T04:19:27;9.90;64.00
10386;DHT22;34307;51.332;12.334;2023-05-19T04:21:55;9.90;64.20
10386;DHT22;34307;51.332;12.334;2023-05-19T04:24:23;10.00;63.00
10386;DHT22;34307;51.332;12.334;2023-05-19T04:26:52;10.00;63.20
10386;DHT22;34307;51.332;12.334;2023-05-19T04:29:28;10.00;62.70
10386;DHT22;34307;51.332;12.334;2023-05-19T04:31:56;10.10;62.70
10386;DHT22;34307;51.332;12.334;2023-05-19T04:34:25;10.20;61.80
10386;DHT22;34307;51.332;12.334;2023-05-19T04:36:54;10.20;61.70
10386;DHT22;34307;51.332;12.334;2023-05-19T04:39:22;10.20;61.70
10386;DHT22;34307;51.332;12.334;2023-05-19T04:41:50;10.30;61.80
10386;DHT22;34307;51.332;12.334;2023-05-19T04:44:19;10.30;61.80
10386;DHT22;34307;51.332;12.334;2023-05-19T04:46:47;10.40;62.60
10386;DHT22;34307;51.332;12.334;2023-05-19T04:49:20;10.40;61.80
10386;DHT22;34307;51.332;12.334;2023-05-19T04:51:51;10.50;61.70
10386;DHT22;34307;51.332;12.334;2023-05-19T04:54:21;10.50;61.10
10386;DHT22;34307;51.332;12.334;2023-05-19T04:56:50;10.60;60.70
10386;DHT22;34307;51.332;12.334;2023-05-19T04:59:18;10.60;60.30
10386;DHT22;34307;51.332;12.334;2023-05-19T05:01:47;10.70;60.00
10386;DHT22;34307;51.332;12.334;2023-05-19T05:04:15;10.80;59.50
10386;DHT22;34307;51.332;12.334;2023-05-19T05:06:43;10.80;59.60
10386;DHT22;34307;51.332;12.334;2023-05-19T05:09:15;10.80;59.60
10386;DHT22;34307;51.332;12.334;2023-05-19T05:11:44;10.80;60.00
10386;DHT22;34307;51.332;12.334;2023-05-19T05:14:12;10.80;58.60
10386;DHT22;34307;51.332;12.334;2023-05-19T05:16:41;10.90;59.10
10386;DHT22;34307;51.332;12.334;2023-05-19T05:19:10;10.90;59.10
10386;DHT22;34307;51.332;12.334;2023-05-19T05:21:40;10.90;59.40
10386;DHT22;34307;51.332;12.334;2023-05-19T05:24:10;11.00;59.40
10386;DHT22;34307;51.332;12.334;2023-05-19T05:26:40;11.10;59.10
10386;DHT22;34307;51.332;12.334;2023-05-19T05:29:14;11.20;58.50
10386;DHT22;34307;51.332;12.334;2023-05-19T05:31:44;11.30;58.00
10386;DHT22;34307;51.332;12.334;2023-05-19T05:34:15;11.50;57.70
10386;DHT22;34307;51.332;12.334;2023-05-19T05:36:44;11.50;56.50
10386;DHT22;34307;51.332;12.334;2023-05-19T05:39:12;11.50;55.70
10386;DHT22;34307;51.332;12.334;2023-05-19T05:41:41;11.50;56.50
10386;DHT22;34307;51.332;12.334;2023-05-19T05:44:09;11.60;56.70
10386;DHT22;34307;51.332;12.334;2023-05-19T05:46:39;11.60;56.20
10386;DHT22;34307;51.332;12.334;2023-05-19T05:49:07;11.70;56.30
10386;DHT22;34307;51.332;12.334;2023-05-19T05:51:36;11.90;56.10
10386;DHT22;34307;51.332;12.334;2023-05-19T05:54:05;12.00;55.20
10386;DHT22;34307;51.332;12.334;2023-05-19T05:56:34;12.10;55.40
10386;DHT22;34307;51.332;12.334;2023-05-19T05:59:06;12.30;54.70
10386;DHT22;34307;51.332;12.334;2023-05-19T06:01:36;12.50;54.20
10386;DHT22;34307;51.332;12.334;2023-05-19T06:04:04;12.70;53.40
10386;DHT22;34307;51.332;12.334;2023-05-19T06:06:40;12.90;52.70
10386;DHT22;34307;51.332;12.334;2023-05-19T06:09:08;12.90;51.40
10386;DHT22;34307;51.332;12.334;2023-05-19T06:12:04;13.00;51.70
10386;DHT22;34307;51.332;12.334;2023-05-19T06:14:34;13.20;51.30
10386;DHT22;34307;51.332;12.334;2023-05-19T06:17:02;13.50;50.80
10386;DHT22;34307;51.332;12.334;2023-05-19T06:19:31;13.50;50.90
10386;DHT22;34307;51.332;12.334;2023-05-19T06:21:59;13.60;49.70
10386;DHT22;34307;51.332;12.334;2023-05-19T06:24:27;13.50;49.40
10386;DHT22;34307;51.332;12.334;2023-05-19T06:26:55;13.50;50.40
10386;DHT22;34307;51.332;12.334;2023-05-19T06:29:23;13.60;51.20
10386;DHT22;34307;51.332;12.334;2023-05-19T06:31:52;13.70;50.60
10386;DHT22;34307;51.332;12.334;2023-05-19T06:34:21;13.60;50.50
10386;DHT22;34307;51.332;12.334;2023-05-19T06:36:52;13.60;50.30
10386;DHT22;34307;51.332;12.334;2023-05-19T06:39:30;13.60;50.90
10386;DHT22;34307;51.332;12.334;2023-05-19T06:42:00;13.70;50.60
10386;DHT22;34307;51.332;12.334;2023-05-19T06:44:28;13.70;50.80
10386;DHT22;34307;51.332;12.334;2023-05-19T06:46:57;13.80;51.00
10386;DHT22;34307;51.332;12.334;2023-05-19T06:49:25;14.00;50.40
10386;DHT22;34307;51.332;12.334;2023-05-19T06:51:55;14.10;50.30
10386;DHT22;34307;51.332;12.334;2023-05-19T06:54:23;14.20;49.80
10386;DHT22;34307;51.332;12.334;2023-05-19T06:56:51;14.30;49.50
10386;DHT22;34307;51.332;12.334;2023-05-19T06:59:19;14.40;49.30
10386;DHT22;34307;51.332;12.334;2023-05-19T07:01:48;14.30;48.70
10386;DHT22;34307;51.332;12.334;2023-05-19T07:04:20;14.30;49.10
10386;DHT22;34307;51.332;12.334;2023-05-19T07:06:48;14.50;50.30
10386;DHT22;34307;51.332;12.334;2023-05-19T07:09:16;14.40;49.10
10386;DHT22;34307;51.332;12.334;2023-05-19T07:11:45;14.50;49.40
10386;DHT22;34307;51.332;12.334;2023-05-19T07:14:15;14.60;49.00
10386;DHT22;34307;51.332;12.334;2023-05-19T07:16:43;14.60;49.00
10386;DHT22;34307;51.332;12.334;2023-05-19T07:19:12;14.60;49.40
10386;DHT22;34307;51.332;12.334;2023-05-19T07:21:42;14.60;48.50
10386;DHT22;34307;51.332;12.334;2023-05-19T07:24:09;14.70;47.80
10386;DHT22;34307;51.332;12.334;2023-05-19T07:26:37;14.70;48.30
10386;DHT22;34307;51.332;12.334;2023-05-19T07:29:06;14.90;49.10
10386;DHT22;34307;51.332;12.334;2023-05-19T07:31:35;15.20;48.20
10386;DHT22;34307;51.332;12.334;2023-05-19T07:34:06;15.20;46.80
10386;DHT22;34307;51.332;12.334;2023-05-19T07:36:34;15.10;46.50
10386;DHT22;34307;51.332;12.334;2023-05-19T07:39:04;15.20;47.00
10386;DHT22;34307;51.332;12.334;2023-05-19T07:41:33;15.10;46.80
10386;DHT22;34307;51.332;12.334;2023-05-19T07:44:02;15.10;46.40
10386;DHT22;34307;51.332;12.334;2023-05-19T07:46:33;15.20;46.40
10386;DHT22;34307;51.332;12.334;2023-05-19T07:49:02;15.20;44.30
10386;DHT22;34307;51.332;12.334;2023-05-19T07:51:29;15.40;45.60
10386;DHT22;34307;51.332;12.334;2023-05-19T07:53:58;15.60;43.90
10386;DHT22;34307;51.332;12.334;2023-05-19T07:56:28;15.80;42.00
10386;DHT22;34307;51.332;12.334;2023-05-19T07:58:57;15.80;40.80
10386;DHT22;34307;51.332;12.334;2023-05-19T08:01:24;16.10;40.80
10386;DHT22;34307;51.332;12.334;2023-05-19T08:03:53;16.30;36.20
10386;DHT22;34307;51.332;12.334;2023-05-19T08:06:22;16.40;33.30
10386;DHT22;34307;51.332;12.334;2023-05-19T08:08:50;16.60;30.90
10386;DHT22;34307;51.332;12.334;2023-05-19T08:11:21;17.10;30.10
10386;DHT22;34307;51.332;12.334;2023-05-19T08:13:52;17.40;28.30
10386;DHT22;34307;51.332;12.334;2023-05-19T08:16:20;17.50;25.80
10386;DHT22;34307;51.332;12.334;2023-05-19T08:18:48;17.60;23.40
10386;DHT22;34307;51.332;12.334;2023-05-19T08:21:18;17.40;22.90
10386;DHT22;34307;51.332;12.334;2023-05-19T08:23:46;17.30;23.70
10386;DHT22;34307;51.332;12.334;2023-05-19T08:26:14;17.10;23.30
10386;DHT22;34307;51.332;12.334;2023-05-19T08:28:44;17.00;22.90
10386;DHT22;34307;51.332;12.334;2023-05-19T08:31:13;17.20;21.40
10386;DHT22;34307;51.332;12.334;2023-05-19T08:33:44;17.30;22.20
10386;DHT22;34307;51.332;12.334;2023-05-19T08:36:12;17.30;23.60
10386;DHT22;34307;51.332;12.334;2023-05-19T08:38:40;17.20;23.40
10386;DHT22;34307;51.332;12.334;2023-05-19T08:41:08;17.10;22.10
10386;DHT22;34307;51.332;12.334;2023-05-19T08:43:36;17.30;22.20
10386;DHT22;34307;51.332;12.334;2023-05-19T08:46:04;17.50;22.60
10386;DHT22;34307;51.332;12.334;2023-05-19T08:48:37;17.60;22.70
10386;DHT22;34307;51.332;12.334;2023-05-19T08:51:13;17.70;22.50
10386;DHT22;34307;51.332;12.334;2023-05-19T08:53:49;17.60;21.20
10386;DHT22;34307;51.332;12.334;2023-05-19T08:56:20;18.00;20.30
10386;DHT22;34307;51.332;12.334;2023-05-19T08:58:50;17.90;18.50
10386;DHT22;34307;51.332;12.334;2023-05-19T09:01:19;17.80;19.10
10386;DHT22;34307;51.332;12.334;2023-05-19T09:03:48;17.90;17.10
10386;DHT22;34307;51.332;12.334;2023-05-19T09:06:17;17.90;19.00
10386;DHT22;34307;51.332;12.334;2023-05-19T09:08:45;18.20;17.20
10386;DHT22;34307;51.332;12.334;2023-05-19T09:11:13;18.10;15.10
10386;DHT22;34307;51.332;12.334;2023-05-19T09:13:42;18.20;15.80
10386;DHT22;34307;51.332;12.334;2023-05-19T09:16:10;18.20;14.90
10386;DHT22;34307;51.332;12.334;2023-05-19T09:18:38;18.20;14.80
10386;DHT22;34307;51.332;12.334;2023-05-19T09:21:09;18.30;12.90
10386;DHT22;34307;51.332;12.334;2023-05-19T09:23:39;18.40;13.30
10386;DHT22;34307;51.332;12.334;2023-05-19T09:26:07;18.40;13.30
10386;DHT22;34307;51.332;12.334;2023-05-19T09:28:36;18.30;12.20
10386;DHT22;34307;51.332;12.334;2023-05-19T09:31:05;18.10;11.50
10386;DHT22;34307;51.332;12.334;2023-05-19T09:33:36;18.10;11.90
10386;DHT22;34307;51.332;12.334;2023-05-19T09:36:10;18.30;12.40
10386;DHT22;34307;51.332;12.334;2023-05-19T09:38:38;18.50;9.60
10386;DHT22;34307;51.332;12.334;2023-05-19T09:41:07;18.50;9.20
10386;DHT22;34307;51.332;12.334;2023-05-19T09:43:35;18.50;9.60
10386;DHT22;34307;51.332;12.334;2023-05-19T09:46:04;18.70;7.80
10386;DHT22;34307;51.332;12.334;2023-05-19T09:48:33;18.40;6.70
10386;DHT22;34307;51.332;12.334;2023-05-19T09:51:04;18.40;6.50
10386;DHT22;34307;51.332;12.334;2023-05-19T09:53:36;18.60;6.80
10386;DHT22;34307;51.332;12.334;2023-05-19T09:56:07;18.80;4.50
10386;DHT22;34307;51.332;12.334;2023-05-19T09:58:36;19.60;3.80
10386;DHT22;34307;51.332;12.334;2023-05-19T10:01:05;20.50;3.10
10386;DHT22;34307;51.332;12.334;2023-05-19T10:03:34;20.80;1.00
10386;DHT22;34307;51.332;12.334;2023-05-19T10:06:03;20.50;1.00
10386;DHT22;34307;51.332;12.334;2023-05-19T10:08:32;20.40;1.00
10386;DHT22;34307;51.332;12.334;2023-05-19T10:11:05;20.50;1.00
10386;DHT22;34307;51.332;12.334;2023-05-19T10:13:34;20.50;1.00
10386;DHT22;34307;51.332;12.334;2023-05-19T10:16:08;20.40;1.00
10386;DHT22;34307;51.332;12.334;2023-05-19T10:18:40;20.40;1.00
10386;DHT22;34307;51.332;12.334;2023-05-19T10:21:11;20.50;1.00
10386;DHT22;34307;51.332;12.334;2023-05-19T10:23:40;20.50;1.00
10386;DHT22;34307;51.332;12.334;2023-05-19T10:26:10;20.10;1.00
10386;DHT22;34307;51.332;12.334;2023-05-19T10:28:42;19.90;1.00
10386;DHT22;34307;51.332;12.334;2023-05-19T10:31:17;20.00;1.00
10386;DHT22;34307;51.332;12.334;2023-05-19T10:34:00;19.80;1.00
10386;DHT22;34307;51.332;12.334;2023-05-19T10:36:41;19.40;1.00
10386;DHT22;34307;51.332;12.334;2023-05-19T10:39:17;19.30;1.00
10386;DHT22;34307;51.332;12.334;2023-05-19T10:42:01;19.40;1.00
10386;DHT22;34307;51.332;12.334;2023-05-19T10:44:42;19.90;1.00
10386;DHT22;34307;51.332;12.334;2023-05-19T10:47:13;20.40;1.00
10386;DHT22;34307;51.332;12.334;2023-05-19T10:49:41;20.30;1.00
10386;DHT22;34307;51.332;12.334;2023-05-19T10:52:19;19.90;1.00
10386;DHT22;34307;51.332;12.334;2023-05-19T10:54:58;20.20;1.00
10386;DHT22;34307;51.332;12.334;2023-05-19T10:57:29;20.70;1.00
10386;DHT22;34307;51.332;12.334;2023-05-19T11:00:02;20.90;1.00
10386;DHT22;34307;51.332;12.334;2023-05-19T11:02:38;20.90;1.00
10386;DHT22;34307;51.332;12.334;2023-05-19T11:05:10;21.00;1.00
10386;DHT22;34307;51.332;12.334;2023-05-19T11:07:43;21.10;1.00
10386;DHT22;34307;51.332;12.334;2023-05-19T11:10:31;21.00;1.00
10386;DHT22;34307;51.332;12.334;2023-05-19T11:13:00;21.30;1.00
10386;DHT22;34307;51.332;12.334;2023-05-19T11:15:28;21.40;1.00
10386;DHT22;34307;51.332;12.334;2023-05-19T11:18:00;21.30;1.00
10386;DHT22;34307;51.332;12.334;2023-05-19T11:20:29;21.20;1.00
10386;DHT22;34307;51.332;12.334;2023-05-19T11:23:04;21.50;1.00
10386;DHT22;34307;51.332;12.334;2023-05-19T11:25:43;21.50;1.00
10386;DHT22;34307;51.332;12.334;2023-05-19T11:28:15;21.80;1.00
10386;DHT22;34307;51.332;12.334;2023-05-19T11:30:44;22.20;1.00
10386;DHT22;34307;51.332;12.334;2023-05-19T11:33:14;21.90;1.00
10386;DHT22;34307;51.332;12.334;2023-05-19T11:35:46;21.30;1.00
10386;DHT22;34307;51.332;12.334;2023-05-19T11:38:16;21.30;1.00
10386;DHT22;34307;51.332;12.334;2023-05-19T11:40:46;21.50;1.00
10386;DHT22;34307;51.332;12.334;2023-05-19T11:43:16;21.10;1.00
10386;DHT22;34307;51.332;12.334;2023-05-19T11:45:44;21.30;1.00
10386;DHT22;34307;51.332;12.334;2023-05-19T11:48:12;21.60;1.00
10386;DHT22;34307;51.332;12.334;2023-05-19T11:50:42;21.90;1.00
10386;DHT22;34307;51.332;12.334;2023-05-19T11:53:12;22.40;1.00
10386;DHT22;34307;51.332;12.334;2023-05-19T11:55:46;22.40;1.00
10386;DHT22;34307;51.332;12.334;2023-05-19T11:58:16;22.20;1.00
10386;DHT22;34307;51.332;12.334;2023-05-19T12:00:45;22.40;1.00
10386;DHT22;34307;51.332;12.334;2023-05-19T12:03:13;22.30;1.00
10386;DHT22;34307;51.332;12.334;2023-05-19T12:05:44;22.20;1.00
10386;DHT22;34307;51.332;12.334;2023-05-19T12:08:15;22.10;1.00
10386;DHT22;34307;51.332;12.334;2023-05-19T12:10:47;22.30;1.00
10386;DHT22;34307;51.332;12.334;2023-05-19T12:13:18;22.00;1.00
10386;DHT22;34307;51.332;12.334;2023-05-19T12:15:50;22.10;1.00
10386;DHT22;34307;51.332;12.334;2023-05-19T12:18:19;21.70;1.00
10386;DHT22;34307;51.332;12.334;2023-05-19T12:20:47;21.60;1.00
10386;DHT22;34307;51.332;12.334;2023-05-19T12:23:16;21.30;1.00
10386;DHT22;34307;51.332;12.334;2023-05-19T12:25:44;21.60;1.00
10386;DHT22;34307;51.332;12.334;2023-05-19T12:28:12;21.60;1.00
10386;DHT22;34307;51.332;12.334;2023-05-19T12:30:46;22.20;1.00
10386;DHT22;34307;51.332;12.334;2023-05-19T12:33:15;22.70;1.00
10386;DHT22;34307;51.332;12.334;2023-05-19T12:35:43;22.80;1.00
10386;DHT22;34307;51.332;12.334;2023-05-19T12:38:13;23.00;1.00
10386;DHT22;34307;51.332;12.334;2023-05-19T12:40:43;22.90;1.00
10386;DHT22;34307;51.332;12.334;2023-05-19T12:43:18;22.30;1.00
10386;DHT22;34307;51.332;12.334;2023-05-19T12:45:48;22.80;1.00
10386;DHT22;34307;51.332;12.334;2023-05-19T12:48:16;23.60;1.00
10386;DHT22;34307;51.332;12.334;2023-05-19T12:50:50;23.50;1.00
10386;DHT22;34307;51.332;12.334;2023-05-19T12:53:19;23.00;1.00
10386;DHT22;34307;51.332;12.334;2023-05-19T12:55:50;22.60;1.00
10386;DHT22;34307;51.332;12.334;2023-05-19T12:58:19;23.10;1.00
10386;DHT22;34307;51.332;12.334;2023-05-19T13:00:49;23.50;1.00
10386;DHT22;34307;51.332;12.334;2023-05-19T13:03:18;23.60;1.00
10386;DHT22;34307;51.332;12.334;2023-05-19T13:05:49;23.90;1.00
10386;DHT22;34307;51.332;12.334;2023-05-19T13:08:19;23.90;1.00
10386;DHT22;34307;51.332;12.334;2023-05-19T13:10:49;24.60;1.00
10386;DHT22;34307;51.332;12.334;2023-05-19T13:13:21;25.00;1.00
10386;DHT22;34307;51.332;12.334;2023-05-19T13:15:50;24.90;1.00
10386;DHT22;34307;51.332;12.334;2023-05-19T13:18:18;24.50;1.00
10386;DHT22;34307;51.332;12.334;2023-05-19T13:20:49;24.30;1.00
10386;DHT22;34307;51.332;12.334;2023-05-19T13:23:18;23.80;1.00
10386;DHT22;34307;51.332;12.334;2023-05-19T13:25:48;23.40;1.00
10386;DHT22;34307;51.332;12.334;2023-05-19T13:28:16;23.20;1.00
10386;DHT22;34307;51.332;12.334;2023-05-19T13:30:45;22.80;1.00
10386;DHT22;34307;51.332;12.334;2023-05-19T13:33:16;23.30;1.00
10386;DHT22;34307;51.332;12.334;2023-05-19T13:35:44;23.70;1.00
10386;DHT22;34307;51.332;12.334;2023-05-19T13:38:12;24.40;1.00
10386;DHT22;34307;51.332;12.334;2023-05-19T13:40:40;24.80;1.00
10386;DHT22;34307;51.332;12.334;2023-05-19T13:43:08;25.60;1.00
10386;DHT22;34307;51.332;12.334;2023-05-19T13:45:38;25.90;1.00
10386;DHT22;34307;51.332;12.334;2023-05-19T13:48:08;24.90;1.00
10386;DHT22;34307;51.332;12.334;2023-05-19T13:50:38;23.80;1.00
10386;DHT22;34307;51.332;12.334;2023-05-19T13:53:07;22.80;1.00
10386;DHT22;34307;51.332;12.334;2023-05-19T13:55:36;23.00;1.00
10386;DHT22;34307;51.332;12.334;2023-05-19T13:58:09;23.40;1.00
10386;DHT22;34307;51.332;12.334;2023-05-19T14:00:39;22.80;1.00
10386;DHT22;34307;51.332;12.334;2023-05-19T14:03:07;22.60;1.00
10386;DHT22;34307;51.332;12.334;2023-05-19T14:05:37;23.30;1.00
10386;DHT22;34307;51.332;12.334;2023-05-19T14:08:05;23.70;1.00
10386;DHT22;34307;51.332;12.334;2023-05-19T14:10:33;23.00;1.00
10386;DHT22;34307;51.332;12.334;2023-05-19T14:13:01;22.60;1.00
10386;DHT22;34307;51.332;12.334;2023-05-19T14:15:50;22.00;1.00
10386;DHT22;34307;51.332;12.334;2023-05-19T14:18:18;21.80;1.00
10386;DHT22;34307;51.332;12.334;2023-05-19T14:20:51;22.40;1.00
10386;DHT22;34307;51.332;12.334;2023-05-19T14:23:19;24.30;1.00
10386;DHT22;34307;51.332;12.334;2023-05-19T14:25:47;25.30;1.00
10386;DHT22;34307;51.332;12.334;2023-05-19T14:28:15;24.80;1.00
10386;DHT22;34307;51.332;12.334;2023-05-19T14:30:45;24.00;1.00
10386;DHT22;34307;51.332;12.334;2023-05-19T14:33:13;23.70;1.00
10386;DHT22;34307;51.332;12.334;2023-05-19T14:35:42;24.40;1.00
10386;DHT22;34307;51.332;12.334;2023-05-19T14:38:12;23.50;1.00
10386;DHT22;34307;51.332;12.334;2023-05-19T14:40:39;22.60;1.00
10386;DHT22;34307;51.332;12.334;2023-05-19T14:43:08;22.30;1.00
10386;DHT22;34307;51.332;12.334;2023-05-19T14:45:38;21.50;1.00
10386;DHT22;34307;51.332;12.334;2023-05-19T14:48:08;21.80;1.00
10386;DHT22;34307;51.332;12.334;2023-05-19T14:50:38;22.30;1.00
10386;DHT22;34307;51.332;12.334;2023-05-19T14:53:06;22.90;1.00
10386;DHT22;34307;51.332;12.334;2023-05-19T14:55:36;23.20;1.00
10386;DHT22;34307;51.332;12.334;2023-05-19T14:58:05;22.70;1.00
10386;DHT22;34307;51.332;12.334;2023-05-19T15:00:52;22.20;1.00
10386;DHT22;34307;51.332;12.334;2023-05-19T15:03:21;22.50;1.00
10386;DHT22;34307;51.332;12.334;2023-05-19T15:05:49;22.90;1.00
10386;DHT22;34307;51.332;12.334;2023-05-19T15:08:17;23.70;1.00
10386;DHT22;34307;51.332;12.334;2023-05-19T15:10:48;23.80;1.00
10386;DHT22;34307;51.332;12.334;2023-05-19T15:13:16;22.60;1.00
10386;DHT22;34307;51.332;12.334;2023-05-19T15:15:47;21.90;1.00
10386;DHT22;34307;51.332;12.334;2023-05-19T15:18:15;21.70;1.00
10386;DHT22;34307;51.332;12.334;2023-05-19T15:20:44;21.50;1.00
10386;DHT22;34307;51.332;12.334;2023-05-19T15:23:12;22.20;1.00
10386;DHT22;34307;51.332;12.334;2023-05-19T15:25:40;22.80;1.00
10386;DHT22;34307;51.332;12.334;2023-05-19T15:28:09;22.60;1.00
10386;DHT22;34307;51.332;12.334;2023-05-19T15:30:42;22.80;1.00
10386;DHT22;34307;51.332;12.334;2023-05-19T15:33:11;22.70;1.00
10386;DHT22;34307;51.332;12.334;2023-05-19T15:35:41;22.80;1.00
10386;DHT22;34307;51.332;12.334;2023-05-19T15:38:09;23.00;1.00
10386;DHT22;34307;51.332;12.334;2023-05-19T15:40:37;22.80;1.00
10386;DHT22;34307;51.332;12.334;2023-05-19T15:43:09;22.20;1.00